Amarillo, TX (79102)

4:22 PM CDT on August 23, 2016 (GMT -0500)
Plemons-Eakle | | Change Station

Elev 3678 ft 35.19 °N, 101.84 °W | Updated 8 seconds ago

Mostly Cloudy
Mostly Cloudy
92.0 °F
Feels Like 91 °F
N
1.2
Wind Variable Wind from WSW
Gusts 15.0 mph

Today
High -- | Low -- °F
--% Chance of Precip.
Yesterday
High -- | Low -- °F
Precip. -- in
Pressure 29.84 in
Visibility 10.0 miles
Clouds Mostly Cloudy 8500 ft
Mostly Cloudy 11000 ft
Heat Index 91 °F
Dew Point 59 °F
Humidity 33%
Rainfall 0.00 in
Snow Depth Not available.
7:13 AM 8:25 PM
Waning Gibbous, 64% visible
METAR KAMA 232053Z 29009KT 10SM BKN085 BKN110 32/14 A3001 RMK AO2 LTG DSNT NE SLP103 T03220144 58017
Pressure 29.84 in
Visibility 10.0 miles
Clouds Mostly Cloudy 8500 ft
Mostly Cloudy 11000 ft
Heat Index 91 °F
Dew Point 59 °F
Humidity 33%
Rainfall 0.00 in
Snow Depth Not available.
7:13 AM 8:25 PM
Waning Gibbous, 64% visible
METAR KAMA 232053Z 29009KT 10SM BKN085 BKN110 32/14 A3001 RMK AO2 LTG DSNT NE SLP103 T03220144 58017

10-Day Weather Forecast

Almanac

Astronomy

Aug. 23, 2016 Rise Set
Actual Time
Civil Twilight
Nautical Twilight
Astronomical Twilight
Moon
Length of Visible Light
Length of Day
Tomorrow will be .
, % of the Moon is Illuminated

Today's Extremes

State Highs State Lows

Community

WunderPhotos

Upload Photos

1,934,464 photos uploaded!

WunderBlog® & News

Nearby

Air Quality

  Air Quality AQ Index Pollutant
Not available.

Snow Depth

Station Depth Elevation

Earthquake Activity

City Distance Mag. Time & Date
Minimum magnitude displayed is 2.5.

Coastal Water Temperatures

Place Temperature

Stations

Nearby Weather Stations

Station Location Temp. Windchill Dew Point Humidity Wind Precip. Elev Updated Type
                   

Watches & Warnings

There are currently no watches in effect.